createdAt,value
2023-03-27T00:04:11.588Z,98687.30
2023-03-27T00:09:21.798Z,98685.09
2023-03-27T00:14:24.926Z,98679.95
2023-03-27T00:19:27.832Z,98681.50
2023-03-27T00:24:31.360Z,98676.17
2023-03-27T00:29:34.765Z,98674.80
2023-03-27T00:34:37.770Z,98676.38
2023-03-27T00:39:42.046Z,98672.27
2023-03-27T00:44:45.019Z,98672.26
2023-03-27T00:49:49.926Z,98670.19
2023-03-27T00:54:52.976Z,98671.41
2023-03-27T00:59:57.929Z,98665.41
2023-03-27T01:05:01.346Z,98662.84
2023-03-27T01:10:06.500Z,98663.20
2023-03-27T01:15:25.684Z,98659.77
2023-03-27T01:21:05.983Z,98656.33
2023-03-27T01:26:47.677Z,98659.08
2023-03-27T01:32:18.649Z,98666.80
2023-03-27T01:37:48.373Z,98669.57
2023-03-27T01:42:53.427Z,98668.52
2023-03-27T01:48:22.959Z,98671.45
2023-03-27T01:53:56.339Z,98678.66
2023-03-27T01:59:04.776Z,98684.50
2023-03-27T02:04:13.439Z,98694.47
2023-03-27T02:09:23.017Z,98704.09
2023-03-27T02:14:34.051Z,98709.73
2023-03-27T02:19:49.633Z,98724.49
2023-03-27T02:24:56.474Z,98732.00
2023-03-27T02:30:15.853Z,98736.59
2023-03-27T02:35:53.248Z,98735.83
2023-03-27T02:41:21.402Z,98732.66
2023-03-27T02:46:38.717Z,98728.31
2023-03-27T02:51:56.665Z,98732.20
2023-03-27T02:57:05.558Z,98745.38
2023-03-27T03:02:25.552Z,98737.90
2023-03-27T03:07:28.560Z,98741.27
2023-03-27T03:12:31.566Z,98743.82
2023-03-27T03:17:35.593Z,98746.05
2023-03-27T03:22:40.199Z,98746.75
2023-03-27T03:27:44.367Z,98754.98
2023-03-27T03:32:47.590Z,98756.37
2023-03-27T03:37:52.864Z,98756.17
2023-03-27T03:42:55.754Z,98760.13
2023-03-27T03:47:58.877Z,98765.31
2023-03-27T03:53:01.863Z,98765.48
2023-03-27T03:58:05.895Z,98771.50
2023-03-27T04:03:10.366Z,98771.83
2023-03-27T04:08:13.437Z,98774.41
2023-03-27T04:13:16.557Z,98789.23
2023-03-27T04:18:19.984Z,98794.57
2023-03-27T04:23:22.971Z,98790.77
2023-03-27T04:28:34.445Z,98789.16
2023-03-27T04:33:39.941Z,98788.45
2023-03-27T04:38:43.064Z,98784.46
2023-03-27T04:43:46.313Z,98783.24
2023-03-27T04:48:49.372Z,98780.79
2023-03-27T04:53:52.380Z,98782.32
2023-03-27T04:58:55.285Z,98783.14
2023-03-27T05:03:58.636Z,98782.56
2023-03-27T05:09:01.903Z,98781.84
2023-03-27T05:14:04.914Z,98783.53
2023-03-27T05:19:08.025Z,98785.70
2023-03-27T05:24:11.280Z,98787.23
2023-03-27T05:29:14.444Z,98790.94
2023-03-27T05:34:19.397Z,98794.31
2023-03-27T05:39:25.693Z,98804.45
2023-03-27T05:44:28.888Z,98810.73
2023-03-27T05:49:34.005Z,98815.14
2023-03-27T05:54:37.363Z,98814.30
2023-03-27T05:59:40.887Z,98820.77
2023-03-27T06:04:44.041Z,98831.31
2023-03-27T06:09:47.304Z,98831.36
2023-03-27T06:14:50.522Z,98836.48
2023-03-27T06:19:53.730Z,98847.23
2023-03-27T06:24:57.147Z,98860.08
2023-03-27T06:30:00.254Z,98869.80
2023-03-27T06:35:04.085Z,98876.33
2023-03-27T06:40:10.308Z,98888.39
2023-03-27T06:45:13.475Z,98897.86
2023-03-27T06:50:17.508Z,98905.59
2023-03-27T06:55:22.531Z,98911.09
2023-03-27T07:00:29.107Z,98920.33
2023-03-27T07:05:36.936Z,98928.44
2023-03-27T07:10:40.577Z,98927.54
2023-03-27T07:15:43.898Z,98931.27
2023-03-27T07:20:48.296Z,98933.05
2023-03-27T07:25:52.347Z,98938.63
2023-03-27T07:30:55.737Z,98937.44
2023-03-27T07:35:59.305Z,98941.04
2023-03-27T07:41:06.912Z,98941.31
2023-03-27T07:46:10.058Z,98940.98
2023-03-27T07:51:14.397Z,98937.42
2023-03-27T07:56:18.297Z,98944.02
2023-03-27T08:01:21.609Z,98941.66
2023-03-27T08:06:24.817Z,98948.20
2023-03-27T08:11:30.956Z,98959.23
2023-03-27T08:16:36.666Z,98972.59
2023-03-27T08:21:40.909Z,98973.37
2023-03-27T08:26:44.216Z,98977.81
2023-03-27T08:31:47.421Z,98983.04
2023-03-27T08:36:50.431Z,98986.54
2023-03-27T08:41:56.307Z,98982.45
2023-03-27T08:47:19.908Z,98985.23
2023-03-27T08:52:26.396Z,98987.34
2023-03-27T08:57:31.744Z,98993.05
2023-03-27T09:03:07.295Z,98994.30
2023-03-27T09:08:32.334Z,98994.15
2023-03-27T09:13:45.174Z,98989.70
2023-03-27T09:18:59.860Z,98998.10
2023-03-27T09:24:08.947Z,99004.70
2023-03-27T09:29:20.053Z,99008.30
2023-03-27T09:34:33.594Z,99013.09
2023-03-27T09:39:41.893Z,99020.25
2023-03-27T09:44:50.500Z,99030.43
2023-03-27T09:49:58.340Z,99032.60
2023-03-27T09:55:03.312Z,99042.36
2023-03-27T10:00:29.473Z,99043.59
2023-03-27T10:05:33.065Z,99056.77
2023-03-27T10:10:42.222Z,99076.30
2023-03-27T10:15:45.946Z,99079.13
2023-03-27T10:20:54.346Z,99090.32
2023-03-27T10:26:01.551Z,99089.94
2023-03-27T10:31:24.682Z,99095.86
2023-03-27T10:36:28.019Z,99102.95
2023-03-27T10:41:33.513Z,99112.67
2023-03-27T10:46:40.225Z,99121.70
2023-03-27T10:51:49.077Z,99128.62
2023-03-27T10:57:02.740Z,99140.29
2023-03-27T11:02:25.842Z,99143.98
2023-03-27T11:07:38.040Z,99152.09
2023-03-27T11:12:48.649Z,99170.11
2023-03-27T11:17:57.939Z,99184.19
2023-03-27T11:23:18.674Z,99197.80
2023-03-27T11:28:31.522Z,99208.23
2023-03-27T11:33:52.662Z,99216.16
2023-03-27T11:39:12.142Z,99234.73
2023-03-27T11:44:15.162Z,99245.83
2023-03-27T11:49:27.384Z,99247.05
2023-03-27T11:54:42.372Z,99262.38
2023-03-27T12:00:11.776Z,99257.89
2023-03-27T12:05:34.159Z,99267.54
2023-03-27T12:10:43.040Z,99271.68
2023-03-27T12:15:52.117Z,99275.64
2023-03-27T12:21:21.673Z,99273.01
2023-03-27T12:26:33.820Z,99272.06
2023-03-27T12:31:39.696Z,99282.84
2023-03-27T12:36:48.331Z,99288.67
2023-03-27T12:41:51.616Z,99288.02
2023-03-27T12:47:07.800Z,99291.51
2023-03-27T12:52:14.711Z,99298.50
2023-03-27T12:57:20.770Z,99304.23
2023-03-27T13:02:55.372Z,99317.70
2023-03-27T13:08:29.092Z,99325.08
2023-03-27T13:13:53.904Z,99324.52
2023-03-27T13:19:34.397Z,99328.82
2023-03-27T13:24:37.292Z,99337.46
2023-03-27T13:29:40.414Z,99345.61
2023-03-27T13:35:01.331Z,99352.18
2023-03-27T13:40:20.718Z,99350.45
2023-03-27T13:45:29.778Z,99343.88
2023-03-27T13:50:48.133Z,99348.89
2023-03-27T13:56:06.515Z,99368.07
2023-03-27T14:01:12.474Z,99381.37
2023-03-27T14:06:43.940Z,99393.59
2023-03-27T14:12:19.940Z,99415.30
2023-03-27T14:18:00.338Z,99415.15
2023-03-27T14:23:13.043Z,99421.07
2023-03-27T14:28:32.858Z,99426.93
2023-03-27T14:33:39.304Z,99435.21
2023-03-27T14:38:42.456Z,99447.30
2023-03-27T14:43:48.302Z,99448.66
2023-03-27T14:48:56.021Z,99470.69
2023-03-27T14:54:05.409Z,99482.23
2023-03-27T14:59:15.052Z,99493.02
2023-03-27T15:04:19.399Z,99500.27
2023-03-27T15:09:23.547Z,99509.02
2023-03-27T15:14:29.320Z,99523.41
2023-03-27T15:19:56.164Z,99536.11
2023-03-27T15:25:17.574Z,99550.20
2023-03-27T15:30:37.864Z,99551.67
2023-03-27T15:35:45.865Z,99550.57
2023-03-27T15:41:00.727Z,99564.77
2023-03-27T15:46:19.052Z,99580.19
2023-03-27T15:51:22.095Z,99593.37
2023-03-27T15:56:40.400Z,99598.29
2023-03-27T16:01:54.107Z,99604.59
2023-03-27T16:07:14.019Z,99616.73
2023-03-27T16:12:19.824Z,99619.79
2023-03-27T16:17:32.508Z,99627.86
2023-03-27T16:22:37.504Z,99635.70
2023-03-27T16:27:58.707Z,99642.98
2023-03-27T16:33:03.318Z,99652.15
2023-03-27T16:38:06.570Z,99658.57
2023-03-27T16:43:10.197Z,99668.38
2023-03-27T16:48:13.782Z,99669.52
2023-03-27T16:53:16.917Z,99672.16
2023-03-27T16:58:20.031Z,99676.34
2023-03-27T17:03:23.578Z,99684.50
2023-03-27T17:08:26.654Z,99686.82
2023-03-27T17:13:30.042Z,99686.62
2023-03-27T17:18:33.277Z,99692.41
2023-03-27T17:23:36.627Z,99692.73
2023-03-27T17:28:40.014Z,99697.34
2023-03-27T17:33:43.031Z,99705.44
2023-03-27T17:38:46.021Z,99709.09
2023-03-27T17:43:49.845Z,99709.86
2023-03-27T17:48:52.957Z,99715.80
2023-03-27T17:53:55.968Z,99717.95
2023-03-27T17:58:59.181Z,99718.91
2023-03-27T18:04:03.201Z,99723.75
2023-03-27T18:09:07.549Z,99730.04
2023-03-27T18:14:10.548Z,99728.08
2023-03-27T18:19:14.703Z,99731.30
2023-03-27T18:24:17.694Z,99734.71
2023-03-27T18:29:22.368Z,99734.45
2023-03-27T18:34:25.442Z,99737.77
2023-03-27T18:39:28.670Z,99743.70
2023-03-27T18:44:36.809Z,99746.27
2023-03-27T18:49:40.195Z,99744.96
2023-03-27T18:54:43.608Z,99748.16
2023-03-27T18:59:47.607Z,99747.11
2023-03-27T19:04:51.260Z,99751.54
2023-03-27T19:09:54.370Z,99750.02
2023-03-27T19:15:00.453Z,99752.98
2023-03-27T19:20:11.249Z,99755.41
2023-03-27T19:25:15.165Z,99752.06
2023-03-27T19:30:18.583Z,99757.72
2023-03-27T19:35:21.696Z,99757.50
2023-03-27T19:40:24.839Z,99752.36
2023-03-27T19:45:28.012Z,99751.71
2023-03-27T19:50:31.500Z,99745.73
2023-03-27T19:55:34.438Z,99742.10
2023-03-27T20:00:40.313Z,99737.17
2023-03-27T20:05:47.926Z,99733.02
2023-03-27T20:10:51.341Z,99734.02
2023-03-27T20:15:54.615Z,99728.89
2023-03-27T20:21:02.072Z,99729.51
2023-03-27T20:26:05.284Z,99723.88
2023-03-27T20:31:08.533Z,99724.84
2023-03-27T20:36:12.698Z,99715.45
2023-03-27T20:41:16.133Z,99710.27
2023-03-27T20:46:19.295Z,99699.41
2023-03-27T20:51:24.932Z,99694.98
2023-03-27T20:56:28.433Z,99697.89
2023-03-27T21:01:34.512Z,99695.59
2023-03-27T21:06:38.807Z,99695.78
2023-03-27T21:11:41.853Z,99688.05
2023-03-27T21:16:44.996Z,99682.48
2023-03-27T21:21:48.199Z,99683.86
2023-03-27T21:26:51.084Z,99679.25
2023-03-27T21:31:54.326Z,99674.33
2023-03-27T21:36:58.514Z,99674.86
2023-03-27T21:42:01.846Z,99670.67
2023-03-27T21:47:05.055Z,99670.15
2023-03-27T21:52:09.146Z,99664.73
2023-03-27T21:57:12.130Z,99657.42
2023-03-27T22:02:15.197Z,99659.66
2023-03-27T22:07:18.217Z,99667.23
2023-03-27T22:12:21.310Z,99669.13
2023-03-27T22:17:24.727Z,99666.21
2023-03-27T22:22:27.965Z,99668.70
2023-03-27T22:27:31.461Z,99668.42
2023-03-27T22:32:34.843Z,99670.46
2023-03-27T22:37:39.174Z,99671.34
2023-03-27T22:42:42.212Z,99670.27
2023-03-27T22:47:45.673Z,99669.92
2023-03-27T22:52:48.691Z,99670.08
2023-03-27T22:57:51.744Z,99661.02
2023-03-27T23:02:54.719Z,99658.30
2023-03-27T23:07:57.765Z,99655.77
2023-03-27T23:13:01.562Z,99652.27
2023-03-27T23:18:05.293Z,99651.23
2023-03-27T23:23:08.220Z,99651.44
2023-03-27T23:28:11.221Z,99647.51
2023-03-27T23:33:14.231Z,99647.19
2023-03-27T23:38:17.232Z,99645.98
2023-03-27T23:43:20.235Z,99647.66
2023-03-27T23:48:23.761Z,99644.58
2023-03-27T23:53:28.398Z,99649.70
2023-03-27T23:58:34.794Z,99651.84
